Terminal Aerodrome Forecast
Issued by NWS Brownsville, TX

Home | Current Version | Previous Version | Text Only | Print | Product List | Glossary On
Versions: 1 2 3 4 5 6 7 8 9 10 11 12 13 14
220
FTUS44 KBRO 190416 AAB
TAFBRO
TAF AMD
KBRO 190416Z 1904/1924 35003KT P6SM FEW021 SCT035 BKN045
     FM191000 35013G19KT P6SM SCT250
     FM191800 36011G17KT P6SM BKN250
     FM192300 02010KT P6SM SKC=

USA.gov is the U.S. government's official web portal to all federal, state and local government web resources and services.